Time;durP1;ratioP1;P1;durP2;ratioP2;P2;SDS_P1;SDS_P2;PMS_P1;PMS_P2;Temp;Humidity;BMP_temperature;BMP_pressure;BME280_temperature;BME280_humidity;BME280_pressure;Samples;Min_cycle;Max_cycle;Signal;HPM_P1;HPM_P2
2022/08/22 00:01:38;;;;;;;;;;;17.20;99.90;;;;;;5048321;28;19968;-83
2022/08/22 00:04:13;;;;;;;;;;;17.20;99.90;;;;;;5048742;28;19991;-83
2022/08/22 00:06:47;;;;;;;;;;;17.30;99.90;;;;;;5047408;28;20034;-83
2022/08/22 00:09:28;;;;;;;;;;;17.30;99.90;;;;;;5049313;28;19932;-83
2022/08/22 00:11:58;;;;;;;;;;;17.30;99.90;;;;;;5029223;28;19931;-83
2022/08/22 00:14:34;;;;;;;;;;;17.30;99.90;;;;;;5028050;28;20364;-83
2022/08/22 00:17:04;;;;;;;;;;;17.30;99.90;;;;;;5046952;28;19931;-83
2022/08/22 00:19:41;;;;;;;;;;;17.20;99.90;;;;;;5046760;28;19932;-83
2022/08/22 00:22:13;;;;;;;;;;;17.20;99.90;;;;;;5047941;28;19925;-83
2022/08/22 00:24:57;;;;;;;;;;;17.30;99.90;;;;;;5047238;28;19968;-83
2022/08/22 00:27:25;;;;;;;;;;;17.20;99.90;;;;;;5048655;28;19967;-83
2022/08/22 00:29:56;;;;;;;;;;;17.20;99.90;;;;;;5047164;28;20394;-84
2022/08/22 00:32:32;;;;;;;;;;;17.20;99.90;;;;;;5047860;28;19936;-83
2022/08/22 00:35:00;;;;;;;;;;;17.20;99.90;;;;;;5047478;28;19924;-83
2022/08/22 00:37:34;;;;;;;;;;;17.30;99.90;;;;;;5031052;28;20043;-84
2022/08/22 00:40:03;;;;;;;;;;;17.20;99.90;;;;;;5048295;28;20019;-83
2022/08/22 00:42:43;;;;;;;;;;;17.20;99.90;;;;;;5047067;28;19925;-83
2022/08/22 00:45:24;;;;;;;;;;;17.20;99.90;;;;;;5048214;28;19940;-83
2022/08/22 00:47:49;;;;;;;;;;;17.20;99.90;;;;;;5047377;28;19932;-84
2022/08/22 00:50:27;;;;;;;;;;;17.20;99.90;;;;;;5045665;28;19925;-83
2022/08/22 00:53:31;;;;;;;;;;;17.10;99.90;;;;;;5029824;28;20387;-84
2022/08/22 00:56:07;;;;;;;;;;;17.20;99.90;;;;;;4951428;28;19973;-83
2022/08/22 00:58:44;;;;;;;;;;;17.10;99.90;;;;;;4969070;28;20312;-84
2022/08/22 01:01:11;;;;;;;;;;;17.10;99.90;;;;;;5012002;28;19929;-83
2022/08/22 01:03:40;;;;;;;;;;;17.00;99.90;;;;;;5079861;22;19932;-80
2022/08/22 01:06:05;;;;;;;;;;;17.00;99.90;;;;;;5053092;28;19925;-80
2022/08/22 01:08:50;;;;;;;;;;;17.00;99.90;;;;;;5052897;28;20012;-81
2022/08/22 01:11:42;;;;;;;;;;;17.00;99.90;;;;;;5058745;28;19924;-81
2022/08/22 01:14:13;;;;;;;;;;;17.00;99.90;;;;;;5046729;28;19960;-81
2022/08/22 01:17:01;;;;;;;;;;;16.90;99.90;;;;;;5047238;28;20293;-81
2022/08/22 01:19:29;;;;;;;;;;;16.90;99.90;;;;;;5051625;28;19936;-80
2022/08/22 01:22:08;;;;;;;;;;;16.90;99.90;;;;;;5066438;28;20017;-81
2022/08/22 01:25:35;;;;;;;;;;;16.90;99.90;;;;;;5061190;28;19929;-80
2022/08/22 01:27:56;;;;;;;;;;;16.90;99.90;;;;;;5032169;28;19925;-80
2022/08/22 01:30:42;;;;;;;;;;;16.90;99.90;;;;;;5049765;28;19993;-81
2022/08/22 01:33:27;;;;;;;;;;;16.80;99.90;;;;;;5045382;28;19925;-80
2022/08/22 01:36:01;;;;;;;;;;;16.80;99.90;;;;;;5044546;28;20050;-80
2022/08/22 01:38:36;;;;;;;;;;;16.80;99.90;;;;;;5060316;28;20469;-81
2022/08/22 01:41:15;;;;;;;;;;;16.70;99.90;;;;;;5045889;28;19925;-81
2022/08/22 01:43:59;;;;;;;;;;;16.70;99.90;;;;;;5052218;28;19920;-80
2022/08/22 01:46:32;;;;;;;;;;;16.70;99.90;;;;;;5050351;28;19987;-80
2022/08/22 01:49:18;;;;;;;;;;;16.60;99.90;;;;;;5047466;28;19928;-81
2022/08/22 01:51:46;;;;;;;;;;;16.70;99.90;;;;;;5032088;28;20019;-81
2022/08/22 01:54:20;;;;;;;;;;;16.60;99.90;;;;;;5046936;28;19925;-80
2022/08/22 01:56:45;;;;;;;;;;;16.60;99.90;;;;;;5037095;28;19917;-81
2022/08/22 01:59:25;;;;;;;;;;;16.50;99.90;;;;;;5049030;28;20390;-81
2022/08/22 02:01:56;;;;;;;;;;;16.50;99.90;;;;;;5038548;28;19916;-80
2022/08/22 02:04:32;;;;;;;;;;;16.40;99.90;;;;;;5063963;28;19928;-80
2022/08/22 02:06:57;;;;;;;;;;;16.40;99.90;;;;;;5050881;28;20329;-81
2022/08/22 02:09:42;;;;;;;;;;;16.40;99.90;;;;;;5045252;28;19931;-81
2022/08/22 02:12:31;;;;;;;;;;;16.40;99.90;;;;;;5046706;28;20271;-81
2022/08/22 02:15:15;;;;;;;;;;;16.30;99.90;;;;;;5029073;28;19935;-80
2022/08/22 02:17:59;;;;;;;;;;;16.30;99.90;;;;;;5045707;28;19931;-80
2022/08/22 02:20:38;;;;;;;;;;;16.30;99.90;;;;;;5057104;28;19925;-81
2022/08/22 02:23:12;;;;;;;;;;;16.30;99.90;;;;;;5028531;28;19925;-81
2022/08/22 02:25:51;;;;;;;;;;;16.30;99.90;;;;;;5056714;28;19925;-80
2022/08/22 02:28:41;;;;;;;;;;;16.40;99.90;;;;;;5046417;28;19978;-81
2022/08/22 02:31:06;;;;;;;;;;;16.40;99.90;;;;;;5025805;28;19931;-81
2022/08/22 02:33:38;;;;;;;;;;;16.40;99.90;;;;;;5056673;28;20330;-81
2022/08/22 02:36:22;;;;;;;;;;;16.40;99.90;;;;;;5056242;28;19924;-81
2022/08/22 02:39:12;;;;;;;;;;;16.30;99.90;;;;;;5050741;28;20462;-81
2022/08/22 02:41:46;;;;;;;;;;;16.30;99.90;;;;;;5054462;28;19971;-81
2022/08/22 02:44:18;;;;;;;;;;;16.30;99.90;;;;;;5050263;28;19925;-81
2022/08/22 02:47:04;;;;;;;;;;;16.20;99.90;;;;;;5045609;28;19947;-81
2022/08/22 02:49:35;;;;;;;;;;;16.20;99.90;;;;;;5062470;28;19925;-81
2022/08/22 02:52:19;;;;;;;;;;;16.20;99.90;;;;;;5046078;28;19925;-81
2022/08/22 02:54:44;;;;;;;;;;;16.20;99.90;;;;;;5064967;28;19928;-80
2022/08/22 02:57:17;;;;;;;;;;;16.20;99.90;;;;;;5051494;28;19925;-81
2022/08/22 03:00:03;;;;;;;;;;;16.10;99.90;;;;;;5045734;28;19931;-80
2022/08/22 03:02:36;;;;;;;;;;;16.10;99.90;;;;;;5038245;28;19931;-80
2022/08/22 03:05:16;;;;;;;;;;;16.00;99.90;;;;;;5061221;28;20402;-81
2022/08/22 03:07:49;;;;;;;;;;;15.90;99.90;;;;;;5059181;28;20063;-81
2022/08/22 03:10:18;;;;;;;;;;;15.90;99.90;;;;;;5061048;28;19925;-81
2022/08/22 03:13:02;;;;;;;;;;;15.90;99.90;;;;;;5058412;28;20373;-81
2022/08/22 03:15:31;;;;;;;;;;;15.90;99.90;;;;;;5061629;28;19968;-81
2022/08/22 03:18:15;;;;;;;;;;;15.90;99.90;;;;;;5064151;28;19928;-81
2022/08/22 03:20:50;;;;;;;;;;;15.90;99.90;;;;;;5054620;28;19924;-80
2022/08/22 03:23:22;;;;;;;;;;;15.90;99.90;;;;;;5044020;28;19965;-81
2022/08/22 03:26:06;;;;;;;;;;;15.90;99.90;;;;;;5050669;28;19924;-81
2022/08/22 03:28:36;;;;;;;;;;;15.90;99.90;;;;;;5052980;28;20363;-80
2022/08/22 03:31:19;;;;;;;;;;;15.90;99.90;;;;;;5045585;28;20326;-81
2022/08/22 03:34:05;;;;;;;;;;;15.80;99.90;;;;;;5059533;28;19967;-81
2022/08/22 03:36:31;;;;;;;;;;;15.80;99.90;;;;;;5047521;28;19931;-81
2022/08/22 03:39:08;;;;;;;;;;;15.80;99.90;;;;;;5045734;28;20019;-81
2022/08/22 03:41:40;;;;;;;;;;;15.80;99.90;;;;;;5044515;28;20353;-81
2022/08/22 03:44:14;;;;;;;;;;;15.80;99.90;;;;;;5049151;28;19929;-81
2022/08/22 03:47:15;;;;;;;;;;;15.70;99.90;;;;;;5043902;28;19925;-81
2022/08/22 03:49:47;;;;;;;;;;;15.70;99.90;;;;;;5005704;28;19996;-80
2022/08/22 03:52:23;;;;;;;;;;;15.80;99.90;;;;;;5046129;28;20011;-81
2022/08/22 03:55:07;;;;;;;;;;;15.80;99.90;;;;;;5027306;28;19924;-81
2022/08/22 03:57:51;;;;;;;;;;;15.70;99.90;;;;;;5043564;28;19925;-80
2022/08/22 04:00:17;;;;;;;;;;;15.70;99.90;;;;;;5048567;28;19982;-81
2022/08/22 04:02:48;;;;;;;;;;;15.70;99.90;;;;;;5052330;28;20012;-80
2022/08/22 04:05:26;;;;;;;;;;;15.70;99.90;;;;;;5045576;28;19939;-80
2022/08/22 04:07:57;;;;;;;;;;;15.70;99.90;;;;;;5053735;28;19924;-81
2022/08/22 04:10:35;;;;;;;;;;;15.70;99.90;;;;;;5067285;28;19924;-81
2022/08/22 04:13:10;;;;;;;;;;;15.70;99.90;;;;;;5047337;28;19964;-81
2022/08/22 04:15:46;;;;;;;;;;;15.70;99.90;;;;;;5049841;28;20066;-81
2022/08/22 04:18:14;;;;;;;;;;;15.70;99.90;;;;;;5059459;28;19925;-81
2022/08/22 04:20:49;;;;;;;;;;;15.70;99.90;;;;;;5053001;28;19925;-81
2022/08/22 04:23:33;;;;;;;;;;;15.70;99.90;;;;;;5058894;28;20283;-80
2022/08/22 04:26:09;;;;;;;;;;;15.60;99.90;;;;;;5030601;28;19925;-80
2022/08/22 04:28:37;;;;;;;;;;;15.60;99.90;;;;;;5046923;28;19980;-81
2022/08/22 04:31:02;;;;;;;;;;;15.60;99.90;;;;;;5057684;28;19924;-80
2022/08/22 04:33:34;;;;;;;;;;;15.60;99.90;;;;;;5057109;28;19925;-81
2022/08/22 04:36:02;;;;;;;;;;;15.60;99.90;;;;;;5029895;28;19972;-81
2022/08/22 04:38:30;;;;;;;;;;;15.60;99.90;;;;;;5048200;28;20405;-81
2022/08/22 04:40:59;;;;;;;;;;;15.60;99.90;;;;;;5057821;28;19929;-81
2022/08/22 04:43:51;;;;;;;;;;;15.60;99.90;;;;;;5030733;28;20371;-81
2022/08/22 04:46:20;;;;;;;;;;;15.60;99.90;;;;;;5051560;28;20575;-81
2022/08/22 04:49:01;;;;;;;;;;;15.70;99.90;;;;;;5052113;28;19948;-80
2022/08/22 04:51:32;;;;;;;;;;;15.70;99.90;;;;;;5047078;28;19925;-81
2022/08/22 04:53:58;;;;;;;;;;;15.70;99.90;;;;;;5051126;28;20385;-81
2022/08/22 04:56:26;;;;;;;;;;;15.70;99.90;;;;;;5057574;28;19928;-81
2022/08/22 04:59:00;;;;;;;;;;;15.70;99.90;;;;;;5053164;28;19928;-80
2022/08/22 05:01:37;;;;;;;;;;;15.70;99.90;;;;;;5042045;28;19978;-81
2022/08/22 05:04:32;;;;;;;;;;;15.70;99.90;;;;;;5028284;28;19972;-81
2022/08/22 05:07:03;;;;;;;;;;;15.70;99.90;;;;;;5037390;28;19972;-80
2022/08/22 05:09:30;;;;;;;;;;;15.80;99.90;;;;;;5051372;28;20011;-80
2022/08/22 05:11:59;;;;;;;;;;;15.80;99.90;;;;;;5046245;28;19999;-81
2022/08/22 05:14:26;;;;;;;;;;;15.80;99.90;;;;;;5048008;28;19954;-80
2022/08/22 05:16:53;;;;;;;;;;;15.90;99.90;;;;;;5039427;28;19925;-80
2022/08/22 05:19:22;;;;;;;;;;;15.90;99.90;;;;;;5045023;28;19935;-80
2022/08/22 05:21:49;;;;;;;;;;;15.90;99.90;;;;;;5047274;28;20557;-80
2022/08/22 05:24:18;;;;;;;;;;;15.90;99.90;;;;;;5057872;28;19978;-81
2022/08/22 05:26:46;;;;;;;;;;;16.00;99.90;;;;;;5047029;28;19931;-81
2022/08/22 05:29:13;;;;;;;;;;;16.00;99.90;;;;;;5046973;28;19948;-81
2022/08/22 05:31:52;;;;;;;;;;;16.00;99.90;;;;;;5047222;28;19931;-81
2022/08/22 05:34:27;;;;;;;;;;;16.00;99.90;;;;;;5045939;28;19920;-81
2022/08/22 05:36:59;;;;;;;;;;;16.00;99.90;;;;;;5060011;28;20390;-82
2022/08/22 05:39:25;;;;;;;;;;;16.00;99.90;;;;;;5056196;28;19921;-83
2022/08/22 05:41:53;;;;;;;;;;;16.00;99.90;;;;;;5065354;28;19974;-81
2022/08/22 05:44:20;;;;;;;;;;;16.00;99.90;;;;;;5064811;28;19931;-81
2022/08/22 05:46:53;;;;;;;;;;;16.00;99.90;;;;;;5056926;28;20016;-83
2022/08/22 05:49:27;;;;;;;;;;;16.00;99.90;;;;;;5044100;28;20247;-81
2022/08/22 05:51:59;;;;;;;;;;;16.00;99.90;;;;;;5044521;28;19947;-81
2022/08/22 05:54:28;;;;;;;;;;;16.10;99.90;;;;;;5030241;28;20016;-81
2022/08/22 05:57:03;;;;;;;;;;;16.10;99.90;;;;;;5045301;28;20002;-81
2022/08/22 05:59:31;;;;;;;;;;;16.10;99.90;;;;;;5045486;28;19970;-81
2022/08/22 06:02:00;;;;;;;;;;;16.10;99.90;;;;;;5046814;28;20306;-81
2022/08/22 06:04:26;;;;;;;;;;;16.20;99.90;;;;;;5056982;28;20421;-81
2022/08/22 06:06:56;;;;;;;;;;;16.20;99.90;;;;;;5046117;28;19925;-87
2022/08/22 06:09:24;;;;;;;;;;;16.20;99.90;;;;;;5048864;28;19925;-80
2022/08/22 06:11:59;;;;;;;;;;;16.20;99.90;;;;;;5045964;28;19925;-80
2022/08/22 06:14:37;;;;;;;;;;;16.20;99.90;;;;;;5047081;28;20378;-80
2022/08/22 06:17:05;;;;;;;;;;;16.20;99.90;;;;;;5054503;28;20438;-80
2022/08/22 06:19:35;;;;;;;;;;;16.20;99.90;;;;;;5048505;28;20433;-80
2022/08/22 06:22:01;;;;;;;;;;;16.20;99.90;;;;;;5057791;28;19924;-80
2022/08/22 06:24:27;;;;;;;;;;;16.30;99.90;;;;;;5055914;28;19929;-84
2022/08/22 06:26:57;;;;;;;;;;;16.20;99.90;;;;;;5029348;28;19951;-80
2022/08/22 06:29:36;;;;;;;;;;;16.20;99.90;;;;;;5041901;28;20016;-83
2022/08/22 06:32:07;;;;;;;;;;;16.20;99.90;;;;;;5060868;28;19925;-76
2022/08/22 06:34:34;;;;;;;;;;;16.20;99.90;;;;;;5042626;28;20342;-78
2022/08/22 06:37:02;;;;;;;;;;;16.20;99.90;;;;;;5045912;28;20366;-77
2022/08/22 06:39:32;;;;;;;;;;;16.20;99.90;;;;;;5045840;28;19944;-78
2022/08/22 06:42:04;;;;;;;;;;;16.20;99.90;;;;;;5028633;28;19947;-78
2022/08/22 06:44:32;;;;;;;;;;;16.20;99.90;;;;;;5046429;28;19924;-78
2022/08/22 06:46:59;;;;;;;;;;;16.20;99.90;;;;;;5035513;28;20135;-77
2022/08/22 06:49:26;;;;;;;;;;;16.30;99.90;;;;;;5043852;28;19931;-78
2022/08/22 06:51:52;;;;;;;;;;;16.30;99.90;;;;;;5045500;28;20070;-73
2022/08/22 06:54:20;;;;;;;;;;;16.30;99.90;;;;;;5055361;28;19924;-73
2022/08/22 06:56:48;;;;;;;;;;;16.30;99.90;;;;;;5044690;28;19928;-73
2022/08/22 06:59:15;;;;;;;;;;;16.30;99.90;;;;;;5045758;28;20178;-74
2022/08/22 07:01:53;;;;;;;;;;;16.30;99.90;;;;;;5032607;28;19936;-74
2022/08/22 07:04:24;;;;;;;;;;;16.30;99.90;;;;;;5053857;28;19962;-74
2022/08/22 07:06:50;;;;;;;;;;;16.40;99.90;;;;;;5045177;28;20405;-74
2022/08/22 07:09:15;;;;;;;;;;;16.40;99.90;;;;;;5045197;28;19925;-74
2022/08/22 07:11:41;;;;;;;;;;;16.40;99.90;;;;;;5045206;28;19925;-73
2022/08/22 07:14:10;;;;;;;;;;;16.50;99.90;;;;;;5045408;28;19925;-74
2022/08/22 07:16:38;;;;;;;;;;;16.60;99.90;;;;;;5045056;28;19924;-74
2022/08/22 07:19:04;;;;;;;;;;;16.70;99.90;;;;;;5044532;28;19925;-76
2022/08/22 07:21:41;;;;;;;;;;;16.70;99.90;;;;;;5045180;28;19925;-75
2022/08/22 07:24:08;;;;;;;;;;;16.80;99.90;;;;;;5045399;28;19931;-77
2022/08/22 07:26:47;;;;;;;;;;;16.90;99.90;;;;;;5043655;28;19925;-78
2022/08/22 07:29:21;;;;;;;;;;;16.90;99.90;;;;;;5045394;28;19928;-72
2022/08/22 07:32:05;;;;;;;;;;;17.00;99.90;;;;;;5044197;28;20553;-74
2022/08/22 07:34:31;;;;;;;;;;;17.20;99.90;;;;;;5043058;28;19999;-73
2022/08/22 07:37:02;;;;;;;;;;;17.20;99.90;;;;;;5045682;28;19929;-79
2022/08/22 07:39:42;;;;;;;;;;;17.30;99.90;;;;;;5044714;28;19917;-77
2022/08/22 07:42:11;;;;;;;;;;;17.40;99.90;;;;;;5031623;28;19925;-76
2022/08/22 07:44:57;;;;;;;;;;;17.40;99.90;;;;;;5049056;28;20375;-75
2022/08/22 07:47:24;;;;;;;;;;;17.50;99.90;;;;;;5048577;28;20032;-76
2022/08/22 07:49:52;;;;;;;;;;;17.60;99.90;;;;;;5048160;28;19995;-76
2022/08/22 07:52:18;;;;;;;;;;;17.60;99.90;;;;;;5048082;28;19924;-75
2022/08/22 07:55:02;;;;;;;;;;;17.70;99.90;;;;;;5048732;28;19925;-75
2022/08/22 07:57:33;;;;;;;;;;;17.60;99.90;;;;;;5047836;28;19924;-74
2022/08/22 08:00:00;;;;;;;;;;;17.70;99.90;;;;;;5049114;28;19925;-76
2022/08/22 08:02:26;;;;;;;;;;;17.70;99.90;;;;;;5047770;28;20016;-77
2022/08/22 08:04:52;;;;;;;;;;;17.80;99.90;;;;;;5050612;28;20419;-78
2022/08/22 08:07:20;;;;;;;;;;;17.80;99.90;;;;;;5057429;28;19952;-77
2022/08/22 08:09:49;;;;;;;;;;;17.80;99.90;;;;;;5052189;28;19968;-78
2022/08/22 08:12:17;;;;;;;;;;;17.90;99.90;;;;;;5066500;28;20299;-78
2022/08/22 08:14:44;;;;;;;;;;;17.90;99.90;;;;;;5063103;28;20438;-79
2022/08/22 08:17:26;;;;;;;;;;;17.90;99.90;;;;;;5047361;28;19932;-77
2022/08/22 08:19:52;;;;;;;;;;;18.00;99.90;;;;;;5046312;28;19925;-81
2022/08/22 08:22:24;;;;;;;;;;;18.00;99.90;;;;;;5047898;28;19967;-81
2022/08/22 08:24:51;;;;;;;;;;;18.00;99.90;;;;;;5028269;28;19932;-79
2022/08/22 08:30:08;;;;;;;;;;;18.00;99.90;;;;;;5046755;28;19971;-81
2022/08/22 08:32:36;;;;;;;;;;;18.00;99.90;;;;;;5046776;28;19935;-81
2022/08/22 08:35:07;;;;;;;;;;;18.10;99.90;;;;;;5047689;28;19925;-82
2022/08/22 08:37:44;;;;;;;;;;;18.10;99.90;;;;;;5048151;28;19928;-80
2022/08/22 08:40:18;;;;;;;;;;;18.10;99.90;;;;;;5048082;28;19982;-78
2022/08/22 08:45:46;;;;;;;;;;;18.20;99.90;;;;;;5048564;28;19931;-80
2022/08/22 08:48:23;;;;;;;;;;;18.30;99.90;;;;;;5045818;28;20039;-80
2022/08/22 08:50:49;;;;;;;;;;;18.30;99.90;;;;;;5045837;28;20134;-81
2022/08/22 08:53:34;;;;;;;;;;;18.30;99.90;;;;;;5047683;28;20393;-79
2022/08/22 08:55:59;;;;;;;;;;;18.40;99.90;;;;;;5048041;28;19951;-80
2022/08/22 08:58:40;;;;;;;;;;;18.50;99.90;;;;;;5048455;28;19925;-82
2022/08/22 09:01:12;;;;;;;;;;;18.50;99.90;;;;;;5046079;28;19932;-80
2022/08/22 09:03:57;;;;;;;;;;;18.50;99.90;;;;;;5046112;28;19925;-78
2022/08/22 09:06:34;;;;;;;;;;;18.60;99.90;;;;;;5038616;28;20019;-82
2022/08/22 09:09:06;;;;;;;;;;;18.60;99.90;;;;;;5047784;28;21882;-79
2022/08/22 09:11:47;;;;;;;;;;;18.60;99.90;;;;;;5046739;28;20307;-79
2022/08/22 09:14:12;;;;;;;;;;;18.60;99.90;;;;;;5046119;28;19971;-78
2022/08/22 09:16:47;;;;;;;;;;;18.60;99.90;;;;;;5047733;28;20310;-79
2022/08/22 09:19:36;;;;;;;;;;;18.70;99.90;;;;;;5044116;28;20044;-81
2022/08/22 09:22:17;;;;;;;;;;;18.70;99.90;;;;;;5026452;28;20417;-81
2022/08/22 09:24:47;;;;;;;;;;;18.70;99.90;;;;;;5045743;28;19937;-82
2022/08/22 09:27:32;;;;;;;;;;;18.70;99.90;;;;;;5022030;28;19925;-81
2022/08/22 09:30:03;;;;;;;;;;;18.80;99.90;;;;;;5050601;28;19955;-82
2022/08/22 09:32:38;;;;;;;;;;;18.80;99.90;;;;;;5045124;28;20453;-81
2022/08/22 09:35:16;;;;;;;;;;;18.80;99.90;;;;;;5039797;28;19937;-80
2022/08/22 09:37:56;;;;;;;;;;;18.80;99.90;;;;;;5041958;28;20034;-82
2022/08/22 09:40:27;;;;;;;;;;;18.80;99.90;;;;;;5036989;28;20023;-82
2022/08/22 09:43:14;;;;;;;;;;;18.90;99.90;;;;;;5043052;28;19932;-81
2022/08/22 09:45:59;;;;;;;;;;;18.90;99.90;;;;;;5028507;28;19932;-82
2022/08/22 09:48:34;;;;;;;;;;;19.00;99.90;;;;;;5029704;28;19925;-81
2022/08/22 09:51:05;;;;;;;;;;;19.00;99.90;;;;;;5035199;28;19933;-82
2022/08/22 09:53:59;;;;;;;;;;;19.00;99.90;;;;;;5040430;28;19932;-84
2022/08/22 09:56:33;;;;;;;;;;;19.00;99.90;;;;;;5043716;28;19968;-82
2022/08/22 09:58:58;;;;;;;;;;;19.10;99.90;;;;;;5038884;28;19926;-75
2022/08/22 10:01:26;;;;;;;;;;;19.10;99.90;;;;;;5039982;28;19932;-79
2022/08/22 10:04:10;;;;;;;;;;;19.10;99.90;;;;;;5043451;28;19932;-79
2022/08/22 10:06:39;;;;;;;;;;;19.10;99.90;;;;;;5044330;28;19950;-80
2022/08/22 10:09:08;;;;;;;;;;;19.20;99.90;;;;;;5041430;28;19924;-81
2022/08/22 10:11:43;;;;;;;;;;;19.20;99.90;;;;;;5042309;28;19970;-77
2022/08/22 10:14:08;;;;;;;;;;;19.20;99.90;;;;;;5059633;28;19925;-78
2022/08/22 10:16:52;;;;;;;;;;;19.30;99.90;;;;;;5046287;28;19931;-77
2022/08/22 10:19:26;;;;;;;;;;;19.30;99.90;;;;;;5045236;28;19925;-77
2022/08/22 10:22:11;;;;;;;;;;;19.40;99.90;;;;;;5027879;28;19921;-76
2022/08/22 10:24:44;;;;;;;;;;;19.40;99.90;;;;;;5045735;28;20493;-77
2022/08/22 10:27:16;;;;;;;;;;;19.40;99.90;;;;;;5044498;28;19932;-77
2022/08/22 10:29:44;;;;;;;;;;;19.50;99.90;;;;;;5046284;28;19952;-77
2022/08/22 10:32:12;;;;;;;;;;;19.50;99.90;;;;;;5046286;28;19925;-77
2022/08/22 10:34:41;;;;;;;;;;;19.50;99.90;;;;;;5043047;28;19972;-77
2022/08/22 10:37:16;;;;;;;;;;;19.60;99.90;;;;;;5045821;28;19924;-77
2022/08/22 10:39:47;;;;;;;;;;;19.60;99.90;;;;;;5044803;28;19925;-77
2022/08/22 10:42:21;;;;;;;;;;;19.60;99.90;;;;;;5046001;28;20071;-77
2022/08/22 10:45:02;;;;;;;;;;;19.60;99.90;;;;;;5042315;28;19924;-77
2022/08/22 10:47:40;;;;;;;;;;;19.70;99.90;;;;;;5044609;28;20414;-77
2022/08/22 10:50:17;;;;;;;;;;;19.70;99.90;;;;;;5043749;28;19982;-77
2022/08/22 10:52:45;;;;;;;;;;;19.70;99.90;;;;;;5045460;28;19925;-78
2022/08/22 10:55:14;;;;;;;;;;;19.80;99.90;;;;;;5045359;28;19928;-77
2022/08/22 10:57:45;;;;;;;;;;;19.80;99.90;;;;;;5044760;28;19928;-77
2022/08/22 11:00:29;;;;;;;;;;;19.80;99.90;;;;;;5026005;28;19924;-78
2022/08/22 11:03:14;;;;;;;;;;;19.90;99.90;;;;;;5040566;28;19925;-77
2022/08/22 11:05:44;;;;;;;;;;;19.90;99.90;;;;;;4988768;28;19930;-77
2022/08/22 11:08:13;;;;;;;;;;;19.90;99.90;;;;;;4998921;28;20018;-81
2022/08/22 11:10:54;;;;;;;;;;;19.90;99.90;;;;;;4987474;28;19925;-79
2022/08/22 11:13:28;;;;;;;;;;;20.00;99.90;;;;;;5006090;28;19961;-78
2022/08/22 11:16:05;;;;;;;;;;;20.00;99.90;;;;;;4987512;28;20380;-79
2022/08/22 11:18:36;;;;;;;;;;;20.00;99.90;;;;;;4991845;28;19997;-78
2022/08/22 11:21:05;;;;;;;;;;;20.10;99.90;;;;;;4995974;28;20436;-78
2022/08/22 11:23:40;;;;;;;;;;;20.20;99.90;;;;;;4992614;28;19926;-74
2022/08/22 11:26:26;;;;;;;;;;;20.20;99.90;;;;;;4999791;28;20514;-75
2022/08/22 11:29:24;;;;;;;;;;;20.10;99.90;;;;;;4999703;28;19925;-74
2022/08/22 11:32:08;;;;;;;;;;;20.00;99.90;;;;;;4958673;28;19975;-80
2022/08/22 11:34:43;;;;;;;;;;;20.00;99.90;;;;;;4994749;28;19925;-78
2022/08/22 11:37:17;;;;;;;;;;;20.10;99.90;;;;;;4980398;28;20067;-78
2022/08/22 11:40:00;;;;;;;;;;;20.10;99.90;;;;;;5005119;28;20048;-79
2022/08/22 11:42:36;;;;;;;;;;;20.10;99.90;;;;;;4988197;28;19925;-78
2022/08/22 11:45:04;;;;;;;;;;;20.10;99.90;;;;;;5005295;28;19975;-77
2022/08/22 11:47:32;;;;;;;;;;;20.20;99.90;;;;;;4996114;28;19926;-77
2022/08/22 11:49:57;;;;;;;;;;;20.30;99.90;;;;;;4994403;28;19925;-78
2022/08/22 11:52:23;;;;;;;;;;;20.40;99.90;;;;;;4991375;28;19932;-78
2022/08/22 11:54:48;;;;;;;;;;;20.50;99.90;;;;;;4995900;28;19937;-77
2022/08/22 11:57:23;;;;;;;;;;;20.60;99.90;;;;;;4995109;28;19932;-79
2022/08/22 11:59:58;;;;;;;;;;;20.70;99.90;;;;;;4998824;28;20539;-78
2022/08/22 12:02:39;;;;;;;;;;;20.90;99.90;;;;;;4995602;28;19926;-79
2022/08/22 12:05:10;;;;;;;;;;;21.00;99.90;;;;;;5026370;28;20423;-78
2022/08/22 12:07:38;;;;;;;;;;;21.00;99.90;;;;;;5043347;28;20370;-79
2022/08/22 12:10:08;;;;;;;;;;;21.10;99.90;;;;;;5035360;28;19932;-80
2022/08/22 12:12:43;;;;;;;;;;;21.10;99.90;;;;;;5043242;28;20376;-80
2022/08/22 12:15:17;;;;;;;;;;;21.20;99.90;;;;;;5037807;28;19939;-80
2022/08/22 12:17:45;;;;;;;;;;;21.20;99.90;;;;;;5022522;28;20046;-80
2022/08/22 12:20:30;;;;;;;;;;;21.10;99.90;;;;;;5033242;28;19932;-80
2022/08/22 12:23:15;;;;;;;;;;;21.10;99.90;;;;;;5030510;28;19929;-80
2022/08/22 12:25:49;;;;;;;;;;;21.10;99.90;;;;;;5033920;28;19925;-80
2022/08/22 12:28:37;;;;;;;;;;;21.10;99.90;;;;;;5042106;28;20411;-81
2022/08/22 12:31:21;;;;;;;;;;;21.10;99.90;;;;;;5031998;28;19972;-84
2022/08/22 12:33:52;;;;;;;;;;;21.00;99.90;;;;;;5029296;28;19925;-86
2022/08/22 12:36:22;;;;;;;;;;;21.00;99.90;;;;;;5046261;28;19929;-85
2022/08/22 12:39:22;;;;;;;;;;;21.00;99.90;;;;;;5048847;28;19920;-86
2022/08/22 12:41:47;;;;;;;;;;;21.00;99.90;;;;;;5043703;28;20415;-85
2022/08/22 12:44:34;;;;;;;;;;;21.00;99.90;;;;;;5046354;28;19963;-85
2022/08/22 12:47:18;;;;;;;;;;;21.00;99.90;;;;;;5046766;28;19925;-85
2022/08/22 12:50:00;;;;;;;;;;;21.10;99.90;;;;;;5027466;28;19991;-85
2022/08/22 12:52:38;;;;;;;;;;;21.20;99.90;;;;;;5028038;28;20386;-85
2022/08/22 12:55:12;;;;;;;;;;;21.30;99.90;;;;;;5026334;28;19929;-84
2022/08/22 12:57:44;;;;;;;;;;;21.30;99.90;;;;;;5041180;28;20440;-84
2022/08/22 13:00:10;;;;;;;;;;;21.40;99.90;;;;;;5047760;28;20010;-86
2022/08/22 13:02:38;;;;;;;;;;;21.40;99.90;;;;;;5044757;28;20358;-85
2022/08/22 13:05:12;;;;;;;;;;;21.40;99.90;;;;;;5049867;28;19925;-85
2022/08/22 13:07:40;;;;;;;;;;;21.40;99.90;;;;;;5025821;28;20016;-85
2022/08/22 13:10:25;;;;;;;;;;;21.30;99.90;;;;;;5033863;28;19950;-85
2022/08/22 13:12:52;;;;;;;;;;;21.30;99.90;;;;;;5049332;28;19931;-85
2022/08/22 13:15:27;;;;;;;;;;;21.30;99.90;;;;;;5046646;28;20170;-86
2022/08/22 13:17:53;;;;;;;;;;;21.30;99.90;;;;;;5046087;28;19925;-82
2022/08/22 13:20:28;;;;;;;;;;;21.30;99.90;;;;;;5045737;28;19928;-84
2022/08/22 13:22:55;;;;;;;;;;;21.40;99.90;;;;;;5046815;28;19920;-86
2022/08/22 13:25:20;;;;;;;;;;;21.50;99.90;;;;;;5052819;28;19936;-88
2022/08/22 13:27:50;;;;;;;;;;;21.60;99.90;;;;;;5049279;28;19929;-84
2022/08/22 13:30:27;;;;;;;;;;;21.70;99.90;;;;;;5029064;28;19931;-78
2022/08/22 13:32:55;;;;;;;;;;;21.70;99.90;;;;;;5045383;28;19931;-78
2022/08/22 13:35:20;;;;;;;;;;;21.80;99.90;;;;;;5045048;28;19964;-78
2022/08/22 13:37:48;;;;;;;;;;;21.80;99.90;;;;;;5045749;28;20335;-78
2022/08/22 13:40:21;;;;;;;;;;;21.90;99.90;;;;;;5046198;28;19925;-78
2022/08/22 13:42:48;;;;;;;;;;;21.90;99.90;;;;;;5046440;28;19928;-75
2022/08/22 13:45:21;;;;;;;;;;;21.90;99.90;;;;;;5045246;28;20301;-79
2022/08/22 13:47:54;;;;;;;;;;;22.00;99.90;;;;;;5045375;28;19929;-79
2022/08/22 13:50:21;;;;;;;;;;;22.10;99.90;;;;;;5046223;28;19925;-80
2022/08/22 13:52:57;;;;;;;;;;;22.20;99.90;;;;;;5045372;28;20186;-81
2022/08/22 13:55:41;;;;;;;;;;;22.20;99.90;;;;;;5045962;28;19925;-80
2022/08/22 13:58:26;;;;;;;;;;;22.20;99.90;;;;;;5044728;28;19974;-80
2022/08/22 14:01:04;;;;;;;;;;;22.20;99.90;;;;;;5045717;28;20023;-80
2022/08/22 14:03:44;;;;;;;;;;;22.10;99.90;;;;;;5026031;28;20371;-81
2022/08/22 14:06:21;;;;;;;;;;;22.10;99.90;;;;;;5046102;28;19924;-80
2022/08/22 14:08:47;;;;;;;;;;;22.20;99.90;;;;;;5045570;28;19925;-86
2022/08/22 14:11:37;;;;;;;;;;;22.20;99.90;;;;;;5046173;28;19932;-80
2022/08/22 14:14:04;;;;;;;;;;;22.10;99.90;;;;;;5045728;28;19932;-80
2022/08/22 14:16:35;;;;;;;;;;;22.10;99.90;;;;;;5045329;28;19924;-79
2022/08/22 14:19:06;;;;;;;;;;;22.00;99.90;;;;;;5044700;28;19925;-80
2022/08/22 14:21:38;;;;;;;;;;;22.00;99.90;;;;;;5045279;28;20066;-79
2022/08/22 14:24:08;;;;;;;;;;;22.00;99.90;;;;;;5045502;28;19935;-83
2022/08/22 14:26:35;;;;;;;;;;;21.90;99.90;;;;;;5045095;28;19925;-83
2022/08/22 14:29:04;;;;;;;;;;;21.90;99.90;;;;;;5044134;28;19925;-82
2022/08/22 14:31:29;;;;;;;;;;;22.00;99.90;;;;;;5045225;28;19970;-84
2022/08/22 14:33:57;;;;;;;;;;;21.90;99.90;;;;;;5044561;28;19924;-83
2022/08/22 14:36:26;;;;;;;;;;;21.90;99.90;;;;;;5045494;28;19925;-83
2022/08/22 14:38:55;;;;;;;;;;;21.90;99.90;;;;;;5043882;28;19925;-83
2022/08/22 14:41:41;;;;;;;;;;;22.00;99.90;;;;;;5044105;28;20023;-82
2022/08/22 14:44:10;;;;;;;;;;;22.00;99.90;;;;;;5041705;28;20019;-83
2022/08/22 14:46:46;;;;;;;;;;;22.00;99.90;;;;;;5044705;28;19936;-79
2022/08/22 14:49:19;;;;;;;;;;;22.00;99.90;;;;;;5041605;28;19924;-76
2022/08/22 14:52:06;;;;;;;;;;;22.00;99.90;;;;;;5039661;28;19925;-76
2022/08/22 14:54:32;;;;;;;;;;;22.00;99.90;;;;;;5032409;28;19929;-74
2022/08/22 14:56:59;;;;;;;;;;;22.00;99.90;;;;;;5041998;28;20294;-74
2022/08/22 14:59:33;;;;;;;;;;;22.00;99.90;;;;;;5044768;28;19940;-74
2022/08/22 15:02:00;;;;;;;;;;;21.90;99.90;;;;;;5037114;28;19933;-78